sensor_id;sensor_type;location;lat;lon;timestamp;pressure;altitude;pressure_sealevel;temperature;humidity
48790;BME280;41718;51.980;5.734;2022-11-12T00:02:00;102939.97;;;3.16;100.00
48790;BME280;41718;51.980;5.734;2022-11-12T00:07:03;102939.88;;;3.14;100.00
48790;BME280;41718;51.980;5.734;2022-11-12T00:12:05;102940.38;;;3.10;100.00
48790;BME280;41718;51.980;5.734;2022-11-12T00:17:06;102946.69;;;3.04;100.00
48790;BME280;41718;51.980;5.734;2022-11-12T00:22:08;102949.41;;;2.95;100.00
48790;BME280;41718;51.980;5.734;2022-11-12T00:27:10;102951.78;;;3.04;100.00
48790;BME280;41718;51.980;5.734;2022-11-12T00:32:12;102942.31;;;3.13;100.00
48790;BME280;41718;51.980;5.734;2022-11-12T00:37:13;102945.91;;;3.05;100.00
48790;BME280;41718;51.980;5.734;2022-11-12T00:42:15;102952.31;;;3.00;100.00
48790;BME280;41718;51.980;5.734;2022-11-12T00:47:16;102952.47;;;3.01;100.00
48790;BME280;41718;51.980;5.734;2022-11-12T00:52:18;102947.69;;;3.06;100.00
48790;BME280;41718;51.980;5.734;2022-11-12T00:57:19;102947.38;;;2.91;100.00
48790;BME280;41718;51.980;5.734;2022-11-12T01:02:21;102948.97;;;2.79;100.00
48790;BME280;41718;51.980;5.734;2022-11-12T01:07:22;102938.19;;;2.83;100.00
48790;BME280;41718;51.980;5.734;2022-11-12T01:12:23;102949.06;;;2.80;100.00
48790;BME280;41718;51.980;5.734;2022-11-12T01:17:25;102949.41;;;2.53;100.00
48790;BME280;41718;51.980;5.734;2022-11-12T01:22:26;102947.09;;;2.56;100.00
48790;BME280;41718;51.980;5.734;2022-11-12T01:27:28;102942.97;;;2.68;100.00
48790;BME280;41718;51.980;5.734;2022-11-12T01:32:33;102944.38;;;2.64;100.00
48790;BME280;41718;51.980;5.734;2022-11-12T01:37:35;102941.91;;;2.44;100.00
48790;BME280;41718;51.980;5.734;2022-11-12T01:42:37;102932.03;;;2.49;100.00
48790;BME280;41718;51.980;5.734;2022-11-12T01:47:39;102927.69;;;2.58;100.00
48790;BME280;41718;51.980;5.734;2022-11-12T01:52:48;102918.34;;;2.58;100.00
48790;BME280;41718;51.980;5.734;2022-11-12T01:57:57;102919.75;;;2.55;100.00
48790;BME280;41718;51.980;5.734;2022-11-12T02:03:01;102912.13;;;2.45;100.00
48790;BME280;41718;51.980;5.734;2022-11-12T02:08:05;102917.75;;;2.51;100.00
48790;BME280;41718;51.980;5.734;2022-11-12T02:13:07;102914.59;;;2.33;100.00
48790;BME280;41718;51.980;5.734;2022-11-12T02:18:28;102904.38;;;2.33;100.00
48790;BME280;41718;51.980;5.734;2022-11-12T02:23:29;102899.13;;;2.31;100.00
48790;BME280;41718;51.980;5.734;2022-11-12T02:28:32;102893.63;;;2.37;100.00
48790;BME280;41718;51.980;5.734;2022-11-12T02:33:33;102898.34;;;2.32;100.00
48790;BME280;41718;51.980;5.734;2022-11-12T02:38:35;102896.19;;;2.27;100.00
48790;BME280;41718;51.980;5.734;2022-11-12T02:43:37;102908.31;;;2.29;100.00
48790;BME280;41718;51.980;5.734;2022-11-12T02:48:38;102906.41;;;2.27;100.00
48790;BME280;41718;51.980;5.734;2022-11-12T02:53:40;102897.88;;;2.16;100.00
48790;BME280;41718;51.980;5.734;2022-11-12T02:58:41;102909.38;;;2.11;100.00
48790;BME280;41718;51.980;5.734;2022-11-12T03:03:43;102905.25;;;2.33;100.00
48790;BME280;41718;51.980;5.734;2022-11-12T03:08:45;102896.72;;;2.33;100.00
48790;BME280;41718;51.980;5.734;2022-11-12T03:13:46;102889.44;;;2.27;100.00
48790;BME280;41718;51.980;5.734;2022-11-12T03:18:47;102882.00;;;2.41;100.00
48790;BME280;41718;51.980;5.734;2022-11-12T03:23:49;102876.22;;;2.43;100.00
48790;BME280;41718;51.980;5.734;2022-11-12T03:28:50;102869.13;;;2.29;100.00
48790;BME280;41718;51.980;5.734;2022-11-12T03:33:52;102872.47;;;2.28;100.00
48790;BME280;41718;51.980;5.734;2022-11-12T03:38:53;102872.31;;;2.26;100.00
48790;BME280;41718;51.980;5.734;2022-11-12T03:43:54;102878.31;;;2.27;100.00
48790;BME280;41718;51.980;5.734;2022-11-12T03:48:56;102873.34;;;2.28;100.00
48790;BME280;41718;51.980;5.734;2022-11-12T03:53:59;102868.63;;;2.33;100.00
48790;BME280;41718;51.980;5.734;2022-11-12T03:59:00;102865.06;;;2.21;100.00
48790;BME280;41718;51.980;5.734;2022-11-12T04:04:02;102878.88;;;2.12;100.00
48790;BME280;41718;51.980;5.734;2022-11-12T04:09:03;102880.81;;;2.05;100.00
48790;BME280;41718;51.980;5.734;2022-11-12T04:14:05;102884.09;;;2.14;100.00
48790;BME280;41718;51.980;5.734;2022-11-12T04:19:10;102886.66;;;2.04;100.00
48790;BME280;41718;51.980;5.734;2022-11-12T04:24:35;102895.06;;;2.03;100.00
48790;BME280;41718;51.980;5.734;2022-11-12T04:29:56;102887.19;;;2.00;100.00
48790;BME280;41718;51.980;5.734;2022-11-12T04:35:16;102887.69;;;1.96;100.00
48790;BME280;41718;51.980;5.734;2022-11-12T04:40:24;102873.78;;;1.92;100.00
48790;BME280;41718;51.980;5.734;2022-11-12T04:45:47;102868.16;;;2.06;100.00
48790;BME280;41718;51.980;5.734;2022-11-12T04:50:52;102866.50;;;1.97;100.00
48790;BME280;41718;51.980;5.734;2022-11-12T04:55:56;102869.31;;;1.90;100.00
48790;BME280;41718;51.980;5.734;2022-11-12T05:00:58;102870.72;;;1.86;100.00
48790;BME280;41718;51.980;5.734;2022-11-12T05:06:04;102858.22;;;1.89;100.00
48790;BME280;41718;51.980;5.734;2022-11-12T05:11:29;102850.56;;;1.79;100.00
48790;BME280;41718;51.980;5.734;2022-11-12T05:16:30;102849.28;;;1.94;100.00
48790;BME280;41718;51.980;5.734;2022-11-12T05:21:32;102837.94;;;1.91;100.00
48790;BME280;41718;51.980;5.734;2022-11-12T05:26:52;102836.03;;;1.88;100.00
48790;BME280;41718;51.980;5.734;2022-11-12T05:31:54;102835.00;;;1.86;100.00
48790;BME280;41718;51.980;5.734;2022-11-12T05:36:56;102828.00;;;1.83;100.00
48790;BME280;41718;51.980;5.734;2022-11-12T05:41:57;102834.66;;;1.71;100.00
48790;BME280;41718;51.980;5.734;2022-11-12T05:47:13;102827.22;;;1.74;100.00
48790;BME280;41718;51.980;5.734;2022-11-12T05:52:14;102836.91;;;1.58;100.00
48790;BME280;41718;51.980;5.734;2022-11-12T05:57:16;102835.16;;;1.67;100.00
48790;BME280;41718;51.980;5.734;2022-11-12T06:02:17;102839.75;;;1.61;100.00
48790;BME280;41718;51.980;5.734;2022-11-12T06:07:19;102843.84;;;1.59;100.00
48790;BME280;41718;51.980;5.734;2022-11-12T06:12:20;102837.97;;;1.50;100.00
48790;BME280;41718;51.980;5.734;2022-11-12T06:17:22;102844.59;;;1.48;100.00
48790;BME280;41718;51.980;5.734;2022-11-12T06:22:23;102850.94;;;1.53;100.00
48790;BME280;41718;51.980;5.734;2022-11-12T06:27:25;102844.84;;;1.51;100.00
48790;BME280;41718;51.980;5.734;2022-11-12T06:32:26;102838.84;;;1.50;100.00
48790;BME280;41718;51.980;5.734;2022-11-12T06:37:28;102857.59;;;1.51;100.00
48790;BME280;41718;51.980;5.734;2022-11-12T06:42:29;102856.31;;;1.46;100.00
48790;BME280;41718;51.980;5.734;2022-11-12T06:47:30;102857.34;;;1.48;100.00
48790;BME280;41718;51.980;5.734;2022-11-12T06:52:32;102861.16;;;1.53;100.00
48790;BME280;41718;51.980;5.734;2022-11-12T06:57:34;102857.59;;;1.51;100.00
48790;BME280;41718;51.980;5.734;2022-11-12T07:02:36;102862.56;;;1.59;100.00
48790;BME280;41718;51.980;5.734;2022-11-12T07:07:37;102856.72;;;1.61;100.00
48790;BME280;41718;51.980;5.734;2022-11-12T07:12:38;102858.59;;;1.63;100.00
48790;BME280;41718;51.980;5.734;2022-11-12T07:17:43;102865.13;;;1.59;100.00
48790;BME280;41718;51.980;5.734;2022-11-12T07:22:45;102864.22;;;1.69;100.00
48790;BME280;41718;51.980;5.734;2022-11-12T07:27:46;102866.53;;;1.76;100.00
48790;BME280;41718;51.980;5.734;2022-11-12T07:32:50;102868.16;;;1.76;100.00
48790;BME280;41718;51.980;5.734;2022-11-12T07:37:52;102875.69;;;1.84;100.00
48790;BME280;41718;51.980;5.734;2022-11-12T07:42:59;102880.31;;;1.89;100.00
48790;BME280;41718;51.980;5.734;2022-11-12T07:48:01;102869.22;;;1.88;100.00
48790;BME280;41718;51.980;5.734;2022-11-12T07:53:02;102874.16;;;1.86;100.00
48790;BME280;41718;51.980;5.734;2022-11-12T07:58:04;102880.16;;;2.07;100.00
48790;BME280;41718;51.980;5.734;2022-11-12T08:03:05;102875.66;;;2.15;100.00
48790;BME280;41718;51.980;5.734;2022-11-12T08:08:07;102877.97;;;2.64;100.00
48790;BME280;41718;51.980;5.734;2022-11-12T08:13:08;102878.53;;;2.82;100.00
48790;BME280;41718;51.980;5.734;2022-11-12T08:18:09;102882.19;;;2.96;100.00
48790;BME280;41718;51.980;5.734;2022-11-12T08:23:11;102887.88;;;3.48;100.00
48790;BME280;41718;51.980;5.734;2022-11-12T08:28:12;102878.19;;;3.77;100.00
48790;BME280;41718;51.980;5.734;2022-11-12T08:33:14;102878.41;;;3.80;100.00
48790;BME280;41718;51.980;5.734;2022-11-12T08:38:15;102889.56;;;3.92;100.00
48790;BME280;41718;51.980;5.734;2022-11-12T08:43:18;102885.47;;;4.30;100.00
48790;BME280;41718;51.980;5.734;2022-11-12T08:48:19;102886.94;;;4.49;100.00
48790;BME280;41718;51.980;5.734;2022-11-12T08:53:23;102869.28;;;4.89;100.00
48790;BME280;41718;51.980;5.734;2022-11-12T08:58:25;102873.44;;;4.75;100.00
48790;BME280;41718;51.980;5.734;2022-11-12T09:03:27;102874.78;;;5.19;100.00
48790;BME280;41718;51.980;5.734;2022-11-12T09:08:28;102869.31;;;5.51;100.00
48790;BME280;41718;51.980;5.734;2022-11-12T09:13:31;102876.59;;;5.33;100.00
48790;BME280;41718;51.980;5.734;2022-11-12T09:18:33;102874.03;;;5.33;100.00
48790;BME280;41718;51.980;5.734;2022-11-12T09:23:34;102879.66;;;6.29;100.00
48790;BME280;41718;51.980;5.734;2022-11-12T09:28:36;102888.56;;;6.07;100.00
48790;BME280;41718;51.980;5.734;2022-11-12T09:33:37;102903.19;;;6.88;100.00
48790;BME280;41718;51.980;5.734;2022-11-12T09:38:39;102907.44;;;6.87;100.00
48790;BME280;41718;51.980;5.734;2022-11-12T09:43:52;102906.97;;;7.08;100.00
48790;BME280;41718;51.980;5.734;2022-11-12T09:49:20;102916.81;;;7.00;100.00
48790;BME280;41718;51.980;5.734;2022-11-12T09:54:25;102908.38;;;7.44;100.00
48790;BME280;41718;51.980;5.734;2022-11-12T09:59:30;102921.59;;;7.78;100.00
48790;BME280;41718;51.980;5.734;2022-11-12T10:10:02;102918.63;;;8.00;100.00
48790;BME280;41718;51.980;5.734;2022-11-12T10:15:30;102922.88;;;8.14;100.00
48790;BME280;41718;51.980;5.734;2022-11-12T10:20:58;102929.94;;;8.46;100.00
48790;BME280;41718;51.980;5.734;2022-11-12T10:26:10;102939.41;;;8.33;100.00
48790;BME280;41718;51.980;5.734;2022-11-12T10:31:18;102943.19;;;8.84;100.00
48790;BME280;41718;51.980;5.734;2022-11-12T10:36:29;102955.53;;;9.04;100.00
48790;BME280;41718;51.980;5.734;2022-11-12T10:41:32;102959.88;;;9.36;100.00
48790;BME280;41718;51.980;5.734;2022-11-12T10:46:36;102962.00;;;9.76;100.00
48790;BME280;41718;51.980;5.734;2022-11-12T10:51:37;102954.09;;;10.57;100.00
48790;BME280;41718;51.980;5.734;2022-11-12T10:56:39;102944.91;;;11.95;100.00
48790;BME280;41718;51.980;5.734;2022-11-12T11:01:43;102940.66;;;12.81;100.00
48790;BME280;41718;51.980;5.734;2022-11-12T11:06:46;102921.50;;;12.99;100.00
48790;BME280;41718;51.980;5.734;2022-11-12T11:11:50;102919.81;;;13.22;100.00
48790;BME280;41718;51.980;5.734;2022-11-12T11:17:00;102921.16;;;13.59;100.00
48790;BME280;41718;51.980;5.734;2022-11-12T11:22:27;102912.34;;;13.32;100.00
48790;BME280;41718;51.980;5.734;2022-11-12T11:27:37;102912.28;;;13.30;100.00
48790;BME280;41718;51.980;5.734;2022-11-12T11:33:00;102912.31;;;12.87;100.00
48790;BME280;41718;51.980;5.734;2022-11-12T11:43:41;102906.06;;;13.26;100.00
48790;BME280;41718;51.980;5.734;2022-11-12T11:54:14;102907.34;;;13.38;100.00
48790;BME280;41718;51.980;5.734;2022-11-12T11:59:39;102903.81;;;13.13;100.00
48790;BME280;41718;51.980;5.734;2022-11-12T12:04:46;102895.47;;;13.68;100.00
48790;BME280;41718;51.980;5.734;2022-11-12T12:20:52;102893.44;;;13.13;100.00
48790;BME280;41718;51.980;5.734;2022-11-12T12:25:57;102888.88;;;13.08;100.00
48790;BME280;41718;51.980;5.734;2022-11-12T12:31:06;102888.63;;;13.22;100.00
48790;BME280;41718;51.980;5.734;2022-11-12T12:36:22;102883.47;;;13.02;100.00
48790;BME280;41718;51.980;5.734;2022-11-12T12:41:37;102873.13;;;12.81;100.00
48790;BME280;41718;51.980;5.734;2022-11-12T12:46:51;102866.34;;;13.07;100.00
48790;BME280;41718;51.980;5.734;2022-11-12T12:51:57;102866.34;;;13.07;100.00
48790;BME280;41718;51.980;5.734;2022-11-12T12:57:02;102864.63;;;12.85;100.00
48790;BME280;41718;51.980;5.734;2022-11-12T13:02:18;102856.47;;;12.98;100.00
48790;BME280;41718;51.980;5.734;2022-11-12T13:07:41;102843.25;;;13.62;100.00
48790;BME280;41718;51.980;5.734;2022-11-12T13:18:07;102837.16;;;12.91;100.00
48790;BME280;41718;51.980;5.734;2022-11-12T13:23:43;102837.09;;;13.12;100.00
48790;BME280;41718;51.980;5.734;2022-11-12T13:34:31;102833.84;;;13.18;100.00
48790;BME280;41718;51.980;5.734;2022-11-12T13:39:34;102834.78;;;12.97;100.00
48790;BME280;41718;51.980;5.734;2022-11-12T13:44:36;102835.69;;;12.98;100.00
48790;BME280;41718;51.980;5.734;2022-11-12T13:49:38;102825.91;;;12.91;100.00
48790;BME280;41718;51.980;5.734;2022-11-12T13:54:39;102819.59;;;12.62;100.00
48790;BME280;41718;51.980;5.734;2022-11-12T13:59:41;102810.16;;;12.64;100.00
48790;BME280;41718;51.980;5.734;2022-11-12T14:04:43;102807.25;;;12.79;100.00
48790;BME280;41718;51.980;5.734;2022-11-12T14:09:58;102810.06;;;12.61;100.00
48790;BME280;41718;51.980;5.734;2022-11-12T14:15:13;102802.97;;;12.57;100.00
48790;BME280;41718;51.980;5.734;2022-11-12T14:25:26;102812.34;;;12.53;100.00
48790;BME280;41718;51.980;5.734;2022-11-12T14:30:28;102815.88;;;12.33;100.00
48790;BME280;41718;51.980;5.734;2022-11-12T14:35:37;102814.56;;;12.22;100.00
48790;BME280;41718;51.980;5.734;2022-11-12T14:40:45;102818.50;;;12.12;100.00
48790;BME280;41718;51.980;5.734;2022-11-12T14:45:49;102808.66;;;12.03;100.00
48790;BME280;41718;51.980;5.734;2022-11-12T14:50:58;102803.50;;;11.84;100.00
48790;BME280;41718;51.980;5.734;2022-11-12T14:56:03;102805.56;;;11.72;100.00
48790;BME280;41718;51.980;5.734;2022-11-12T15:01:27;102788.25;;;11.71;100.00
48790;BME280;41718;51.980;5.734;2022-11-12T15:06:51;102787.47;;;11.73;100.00
48790;BME280;41718;51.980;5.734;2022-11-12T15:11:54;102795.41;;;11.76;100.00
48790;BME280;41718;51.980;5.734;2022-11-12T15:16:55;102799.28;;;11.46;100.00
48790;BME280;41718;51.980;5.734;2022-11-12T15:21:58;102807.91;;;11.06;100.00
48790;BME280;41718;51.980;5.734;2022-11-12T15:27:36;102806.41;;;10.92;100.00
48790;BME280;41718;51.980;5.734;2022-11-12T15:32:38;102814.28;;;10.75;100.00
48790;BME280;41718;51.980;5.734;2022-11-12T15:37:40;102812.09;;;10.65;100.00
48790;BME280;41718;51.980;5.734;2022-11-12T15:42:43;102811.19;;;10.27;100.00
48790;BME280;41718;51.980;5.734;2022-11-12T15:47:45;102802.28;;;10.04;100.00
48790;BME280;41718;51.980;5.734;2022-11-12T15:52:47;102806.16;;;9.78;100.00
48790;BME280;41718;51.980;5.734;2022-11-12T15:57:51;102791.84;;;9.51;100.00
48790;BME280;41718;51.980;5.734;2022-11-12T16:02:58;102795.91;;;9.29;100.00
48790;BME280;41718;51.980;5.734;2022-11-12T16:08:00;102793.84;;;9.06;100.00
48790;BME280;41718;51.980;5.734;2022-11-12T16:13:02;102785.28;;;9.07;100.00
48790;BME280;41718;51.980;5.734;2022-11-12T16:18:04;102774.81;;;8.88;100.00
48790;BME280;41718;51.980;5.734;2022-11-12T16:23:06;102764.91;;;8.63;100.00
48790;BME280;41718;51.980;5.734;2022-11-12T16:28:12;102774.53;;;8.50;100.00
48790;BME280;41718;51.980;5.734;2022-11-12T16:33:14;102759.47;;;8.58;100.00
48790;BME280;41718;51.980;5.734;2022-11-12T16:38:17;102769.91;;;8.45;100.00
48790;BME280;41718;51.980;5.734;2022-11-12T16:43:25;102754.72;;;8.35;100.00
48790;BME280;41718;51.980;5.734;2022-11-12T16:48:27;102748.72;;;8.19;100.00
48790;BME280;41718;51.980;5.734;2022-11-12T16:53:29;102748.06;;;8.07;100.00
48790;BME280;41718;51.980;5.734;2022-11-12T16:58:31;102758.91;;;8.02;100.00
48790;BME280;41718;51.980;5.734;2022-11-12T17:03:35;102755.72;;;8.22;100.00
48790;BME280;41718;51.980;5.734;2022-11-12T17:08:41;102753.81;;;8.18;100.00
48790;BME280;41718;51.980;5.734;2022-11-12T17:13:45;102743.94;;;8.11;100.00
48790;BME280;41718;51.980;5.734;2022-11-12T17:18:51;102747.53;;;7.98;100.00
48790;BME280;41718;51.980;5.734;2022-11-12T17:23:54;102735.25;;;7.94;100.00
48790;BME280;41718;51.980;5.734;2022-11-12T17:28:58;102741.81;;;8.04;100.00
48790;BME280;41718;51.980;5.734;2022-11-12T17:34:08;102744.94;;;8.13;100.00
48790;BME280;41718;51.980;5.734;2022-11-12T17:39:14;102737.13;;;7.96;100.00
48790;BME280;41718;51.980;5.734;2022-11-12T17:44:17;102742.00;;;7.61;100.00
48790;BME280;41718;51.980;5.734;2022-11-12T17:49:19;102742.44;;;7.39;100.00
48790;BME280;41718;51.980;5.734;2022-11-12T17:54:23;102740.63;;;7.23;100.00
48790;BME280;41718;51.980;5.734;2022-11-12T17:59:25;102735.28;;;7.20;100.00
48790;BME280;41718;51.980;5.734;2022-11-12T18:04:26;102728.28;;;7.17;100.00
48790;BME280;41718;51.980;5.734;2022-11-12T18:09:31;102723.06;;;7.16;100.00
48790;BME280;41718;51.980;5.734;2022-11-12T18:14:32;102717.06;;;7.02;100.00
48790;BME280;41718;51.980;5.734;2022-11-12T18:19:34;102725.06;;;7.07;100.00
48790;BME280;41718;51.980;5.734;2022-11-12T18:24:36;102711.59;;;7.11;100.00
48790;BME280;41718;51.980;5.734;2022-11-12T18:29:38;102714.34;;;6.99;100.00
48790;BME280;41718;51.980;5.734;2022-11-12T18:34:41;102715.00;;;6.82;100.00
48790;BME280;41718;51.980;5.734;2022-11-12T18:39:45;102721.22;;;6.57;100.00
48790;BME280;41718;51.980;5.734;2022-11-12T18:44:46;102711.72;;;6.56;100.00
48790;BME280;41718;51.980;5.734;2022-11-12T18:49:48;102705.72;;;6.56;100.00
48790;BME280;41718;51.980;5.734;2022-11-12T18:54:50;102707.53;;;6.44;100.00
48790;BME280;41718;51.980;5.734;2022-11-12T18:59:51;102699.06;;;6.31;100.00
48790;BME280;41718;51.980;5.734;2022-11-12T19:04:58;102697.88;;;6.26;100.00
48790;BME280;41718;51.980;5.734;2022-11-12T19:09:59;102694.84;;;6.05;100.00
48790;BME280;41718;51.980;5.734;2022-11-12T19:15:01;102695.66;;;6.04;100.00
48790;BME280;41718;51.980;5.734;2022-11-12T19:20:03;102688.66;;;6.02;100.00
48790;BME280;41718;51.980;5.734;2022-11-12T19:25:05;102691.50;;;5.93;100.00
48790;BME280;41718;51.980;5.734;2022-11-12T19:30:11;102696.31;;;5.89;100.00
48790;BME280;41718;51.980;5.734;2022-11-12T19:35:12;102694.06;;;5.80;100.00
48790;BME280;41718;51.980;5.734;2022-11-12T19:40:14;102687.94;;;5.78;100.00
48790;BME280;41718;51.980;5.734;2022-11-12T19:45:15;102693.16;;;5.66;100.00
48790;BME280;41718;51.980;5.734;2022-11-12T19:50:18;102681.69;;;5.61;100.00
48790;BME280;41718;51.980;5.734;2022-11-12T19:55:25;102689.91;;;5.55;100.00
48790;BME280;41718;51.980;5.734;2022-11-12T20:00:29;102678.47;;;5.50;100.00
48790;BME280;41718;51.980;5.734;2022-11-12T20:05:31;102676.56;;;5.48;100.00
48790;BME280;41718;51.980;5.734;2022-11-12T20:10:35;102670.91;;;5.27;100.00
48790;BME280;41718;51.980;5.734;2022-11-12T20:15:37;102677.84;;;5.28;100.00
48790;BME280;41718;51.980;5.734;2022-11-12T20:20:39;102672.31;;;5.22;100.00
48790;BME280;41718;51.980;5.734;2022-11-12T20:25:41;102673.78;;;5.18;100.00
48790;BME280;41718;51.980;5.734;2022-11-12T20:30:43;102670.59;;;5.09;100.00
48790;BME280;41718;51.980;5.734;2022-11-12T20:35:45;102668.91;;;5.10;100.00
48790;BME280;41718;51.980;5.734;2022-11-12T20:40:47;102659.53;;;4.97;100.00
48790;BME280;41718;51.980;5.734;2022-11-12T20:45:51;102655.63;;;4.77;100.00
48790;BME280;41718;51.980;5.734;2022-11-12T20:51:06;102655.50;;;4.75;100.00
48790;BME280;41718;51.980;5.734;2022-11-12T20:56:27;102654.53;;;4.73;100.00
48790;BME280;41718;51.980;5.734;2022-11-12T21:01:29;102654.91;;;4.66;100.00
48790;BME280;41718;51.980;5.734;2022-11-12T21:06:31;102645.78;;;4.58;100.00
48790;BME280;41718;51.980;5.734;2022-11-12T21:11:33;102638.81;;;4.56;100.00
48790;BME280;41718;51.980;5.734;2022-11-12T21:16:35;102639.88;;;4.59;100.00
48790;BME280;41718;51.980;5.734;2022-11-12T21:21:36;102637.19;;;4.44;100.00
48790;BME280;41718;51.980;5.734;2022-11-12T21:26:39;102630.69;;;4.49;100.00
48790;BME280;41718;51.980;5.734;2022-11-12T21:31:41;102626.59;;;4.40;100.00
48790;BME280;41718;51.980;5.734;2022-11-12T21:36:42;102631.25;;;4.45;100.00
48790;BME280;41718;51.980;5.734;2022-11-12T21:41:44;102629.63;;;4.34;100.00
48790;BME280;41718;51.980;5.734;2022-11-12T21:46:45;102625.22;;;4.32;100.00
48790;BME280;41718;51.980;5.734;2022-11-12T21:51:47;102628.44;;;4.29;100.00
48790;BME280;41718;51.980;5.734;2022-11-12T21:56:48;102627.22;;;4.24;100.00
48790;BME280;41718;51.980;5.734;2022-11-12T22:01:50;102615.25;;;4.11;100.00
48790;BME280;41718;51.980;5.734;2022-11-12T22:06:51;102615.25;;;4.11;100.00
48790;BME280;41718;51.980;5.734;2022-11-12T22:11:53;102621.56;;;4.16;100.00
48790;BME280;41718;51.980;5.734;2022-11-12T22:16:54;102617.00;;;4.12;100.00
48790;BME280;41718;51.980;5.734;2022-11-12T22:21:56;102615.56;;;4.16;100.00
48790;BME280;41718;51.980;5.734;2022-11-12T22:26:57;102598.84;;;4.21;100.00
48790;BME280;41718;51.980;5.734;2022-11-12T22:32:05;102590.63;;;4.13;100.00
48790;BME280;41718;51.980;5.734;2022-11-12T22:37:07;102582.69;;;4.22;100.00
48790;BME280;41718;51.980;5.734;2022-11-12T22:42:08;102573.56;;;4.14;100.00
48790;BME280;41718;51.980;5.734;2022-11-12T22:47:09;102574.78;;;4.19;100.00
48790;BME280;41718;51.980;5.734;2022-11-12T22:52:11;102582.47;;;4.19;100.00
48790;BME280;41718;51.980;5.734;2022-11-12T22:57:13;102586.50;;;4.15;100.00
48790;BME280;41718;51.980;5.734;2022-11-12T23:02:14;102582.19;;;4.03;100.00
48790;BME280;41718;51.980;5.734;2022-11-12T23:07:16;102575.56;;;3.93;100.00
48790;BME280;41718;51.980;5.734;2022-11-12T23:12:17;102574.28;;;3.75;100.00
48790;BME280;41718;51.980;5.734;2022-11-12T23:17:21;102567.91;;;3.81;100.00
48790;BME280;41718;51.980;5.734;2022-11-12T23:22:22;102576.38;;;3.80;100.00
48790;BME280;41718;51.980;5.734;2022-11-12T23:27:24;102565.94;;;3.65;100.00
48790;BME280;41718;51.980;5.734;2022-11-12T23:32:25;102544.91;;;3.69;100.00
48790;BME280;41718;51.980;5.734;2022-11-12T23:37:27;102551.25;;;3.75;100.00
48790;BME280;41718;51.980;5.734;2022-11-12T23:42:28;102538.81;;;3.56;100.00
48790;BME280;41718;51.980;5.734;2022-11-12T23:47:30;102545.59;;;3.55;100.00
48790;BME280;41718;51.980;5.734;2022-11-12T23:52:32;102533.38;;;3.51;100.00
48790;BME280;41718;51.980;5.734;2022-11-12T23:57:33;102535.47;;;3.57;100.00
